Aeroporto :
LOGIN :

Iscrizione | Disclaimer

   EN    FR    IT 

 










Sommario :    VFR   VFR Marginale   IFR   IFR Intensivo   IFR Molto Intensivo
Visibilità : 
Base nubi : 
>= 8 km
>= 3000ft
5 / 8 km
1000 / 3000 ft
1500m / 5 km
500 / 1000 ft
800 / 1500m
200 / 500 ft
< 800m
< 200 ft
Simboli :   Temporali  Nebbia  Neve Forte  Precipitazioni Forti  Vento > 20 kt
SIGMETs :   Varie  Temporali  Ghiacco  Turbolenza  Onda orograficha  Ceneri Vulcaniche






- Altitudine del aeroporto : 218 ft
- Codice IATA : LBG


LFPB - Paris / Le Bourget

ULTIMO METAR :
  • 171900Z AUTO 22011KT CAVOK 08/03 Q1022 TEMPO 24015G25KT

METARs OBSOLETI :
  • 171830Z AUTO 23010KT 9999 FEW048 BKN066 08/04 Q1021 TEMPO 24015G25KT
  • 171800Z AUTO 23010KT CAVOK 08/04 Q1021 TEMPO 24015G25KT 4000 SHRA SCT015TCU
  • 171730Z AUTO 24011KT 220V280 9999 FEW023/// SCT040/// BKN076/// 08/04 Q1020 TEMPO 24015G25KT 4000 SHRA SCT015TCU
  • 171700Z AUTO 24010KT 9999 FEW010/// BKN036/// OVC047/// ///TCU 08/05 Q1020 TEMPO 4000 SHRA SCT015CB BECMG 23020KT
  • 171630Z AUTO 25018G29KT 220V300 9999 -RA FEW016 BKN041 BKN049 10/03 Q1019 TEMPO 4000 SHRA SCT015CB BECMG 23020KT

TAF TAF LFPB
Valido dal 17 a 18 ore il 18 a 18 ore UTC


171700Z 1718/1818 23015KT 9999 SCT030 SCT040
TEMPO 1718/1724 24015G25KT
PROB30
TEMPO 1718/1719 4000 SHRA SCT015TCU
TEMPO 1812/1818 25015G25KT
PROB40
TEMPO 1812/1818 SCT030TCU
ATIS : +33 1 48 62 43 92



MetMap, La meteo Aeronautica in un colpo d'occhio ! - Copyright ORBIFLY Dicembre 2007 - Disclaimer

ORBIFLY MET'MAP TEAM :

Programmazione e sviluppo : Alexandra Zaïnal
Concezione : Baudouin d'Aumeries
Aiuto per la programmazione : Marc-Olivier Méhu
Supporto tecnico e logistico : Manuel Goepfert
Aiuto per la traduzione : Arnaldo La Scala

Contatto : metmap@orbifly.com




FONTI E CREDITI :

   NOAA